Arcos de la Frontera, Spain
Current Conditions -  °F | °C
As of 5:00 PM on Saturday 25 Oct 2014 (Local Time) from LEJR Reporting Station
Clear Clear  
Wind Chill: 84°   Ceiling: Unl
Heat Index: 84°   Visibility: 6mi
Dew Point: 41°   Wind: 0mph
Humidity: 22%   Direction: NA
Pressure: 30"   Gusts: NA
Location:  36.75°N, 5.81°W
Report Text: LEJR 251500Z 00000KT CAVOK 29/05 Q1016
Loading
Personal Weather Stations






























Interactive Weather Map
Tropical Storm Tracking
New forecast layout! Learn more

10-Day Weather Forecast

Advertisements
Track Severe Weather on mobile